Zagazig, Egypt
Current Conditions -  °F | °C
As of 9:00 AM on Saturday 25 Oct 2014 (Local Time) from HECA Reporting Station
Clear Clear  
Wind Chill: 86°   Ceiling: Unl
Heat Index: 86°   Visibility: 6mi
Dew Point: 41°   Wind: 8mph
Humidity: 20%   Direction: 140°SE
Pressure: 29.97"   Gusts: NA
Location:  30.58°N, 31.48°E
Report Text: HECA 250700Z 14007KT CAVOK 30/05 Q1015 NOSIG
Loading
Personal Weather Stations






























Interactive Weather Map
Tropical Storm Tracking
New forecast layout! Learn more

10-Day Weather Forecast

Advertisements
Track Severe Weather on mobile